Hovedside
METAR-TAF:

METAR-TAF

Lufthavner :

Brasília-Juscelino Kubitschek internasjonale lufthavn

Brasília, Distrito Federal, Brasil

breddegrad: 15-52S, lengdegrad: 047-56W, høyde over havet: 1061 m

Gjeldene værobservasjon

Denne rapporten ble laget for 46 minutter siden, klokken 20:00 UTC
Vind 6 kt fra Øst-sørøst, skiftende mellom Øst-nordøst og Sør-sørvest
Temperatur 27°C
Luftfuktighet 34%
Trykk 1020 hPa
Sikt 10 km eller mer
ingen skyer under 1500 m og ingen bygeskyer

METAR: SBBR 252000Z 12006KT 070V210 CAVOK 27/10 Q1020

Tid: 17:46 (20:46 UTC)

Varsel

Denne rapporten ble laget for 4 timer og 30 minutter siden, klokken 16:16 UTC
Varsel gyldig fra 25. klokken 18 UTC til 26. klokken 18 UTC
Vind 5 kt fra Øst-nordøst
Sikt 10 km eller mer
ingen skyer under 1500 m og ingen bygeskyer

TAF: SBBR 251616Z 2518/2618 06005KT CAVOK TX27/2518Z TN14/2609Z RMK PGG

Værobservasjoner og værvarsel for over 4000 flyplasser (METAR- og TAF-rapporter).

Tilgjengelige stasjoner er representert av de røde og gule prikkene på kartet.

Hold musepekeren over prikken for å se navnet på stasjonen.

Klikk så for å se værobservasjoner og -varsler.

For å forandre kartet kan du klikke på den grønne knappen med svart kryss for å zoome inn, på den grønne knappen med strek for å zoome ut, eller på de grønne pilene for å se tilstøtende kart.


METAR-TAF: